createdAt,value
2022-11-05T00:01:04.239Z,-23422.16
2022-11-05T00:03:26.901Z,-23423.88
2022-11-05T00:05:47.263Z,-23418.97
2022-11-05T00:08:19.023Z,-23418.03
2022-11-05T00:10:24.415Z,-23416.09
2022-11-05T00:12:44.524Z,-23418.81
2022-11-05T00:15:05.033Z,-23420.72
2022-11-05T00:17:07.647Z,-23417.06
2022-11-05T00:19:11.608Z,-23421.34
2022-11-05T00:21:28.225Z,-23421.81
2022-11-05T00:23:48.339Z,-23423.25
2022-11-05T00:25:58.844Z,-23424.22
2022-11-05T00:28:03.072Z,-23426.44
2022-11-05T00:30:06.992Z,-23425.63
2022-11-05T00:32:09.623Z,-23423.25
2022-11-05T00:34:13.567Z,-23424.53
2022-11-05T00:36:16.342Z,-23427.06
2022-11-05T00:38:19.029Z,-23428.81
2022-11-05T00:40:21.628Z,-23431.03
2022-11-05T00:42:42.177Z,-23424.84
2022-11-05T00:45:02.484Z,-23427.22
2022-11-05T00:47:19.147Z,-23431.34
2022-11-05T00:49:31.959Z,-23424.06
2022-11-05T00:51:34.605Z,-23425.00
2022-11-05T00:53:37.243Z,-23425.63
2022-11-05T00:55:41.171Z,-23425.63
2022-11-05T00:57:42.867Z,-23424.69
2022-11-05T00:59:45.454Z,-23422.47
2022-11-05T01:01:48.117Z,-23422.00
2022-11-05T01:03:52.024Z,-23421.81
2022-11-05T01:05:59.233Z,-23423.09
2022-11-05T01:08:02.537Z,-23421.19
2022-11-05T01:10:05.917Z,-23421.50
2022-11-05T01:12:08.586Z,-23422.47
2022-11-05T01:14:13.962Z,-23424.06
2022-11-05T01:16:16.534Z,-23421.81
2022-11-05T01:18:20.119Z,-23421.34
2022-11-05T01:20:22.811Z,-23418.66
2022-11-05T01:22:26.789Z,-23422.16
2022-11-05T01:24:29.529Z,-23421.81
2022-11-05T01:26:32.514Z,-23424.06
2022-11-05T01:28:35.287Z,-23425.31
2022-11-05T01:30:38.923Z,-23423.41
2022-11-05T01:32:41.568Z,-23424.38
2022-11-05T01:34:44.199Z,-23420.25
2022-11-05T01:36:46.966Z,-23421.19
2022-11-05T01:38:50.920Z,-23421.66
2022-11-05T01:40:53.588Z,-23424.06
2022-11-05T01:42:56.209Z,-23421.50
2022-11-05T01:45:02.296Z,-23418.34
2022-11-05T01:47:05.026Z,-23419.13
2022-11-05T01:49:14.971Z,-23423.25
2022-11-05T01:51:22.165Z,-23422.00
2022-11-05T01:53:31.440Z,-23420.88
2022-11-05T01:55:40.273Z,-23417.38
2022-11-05T01:57:42.916Z,-23417.69
2022-11-05T01:59:49.467Z,-23425.63
2022-11-05T02:01:52.979Z,-23420.09
2022-11-05T02:04:00.627Z,-23425.63
2022-11-05T02:06:04.778Z,-23422.00
2022-11-05T02:08:11.014Z,-23419.59
2022-11-05T02:10:15.485Z,-23416.91
2022-11-05T02:12:20.480Z,-23418.50
2022-11-05T02:14:23.072Z,-23422.47
2022-11-05T02:16:37.672Z,-23421.66
2022-11-05T02:18:52.119Z,-23422.00
2022-11-05T02:21:06.574Z,-23422.78
2022-11-05T02:23:51.475Z,-23422.94
2022-11-05T02:26:36.200Z,-23422.47
2022-11-05T02:29:01.269Z,-23425.63
2022-11-05T02:31:08.415Z,-23427.22
2022-11-05T02:33:23.238Z,-23425.31
2022-11-05T02:35:44.194Z,-23425.00
2022-11-05T02:37:52.540Z,-23424.53
2022-11-05T02:40:06.089Z,-23424.69
2022-11-05T02:42:16.532Z,-23422.78
2022-11-05T02:44:27.872Z,-23423.41
2022-11-05T02:46:42.561Z,-23425.63
2022-11-05T02:48:51.474Z,-23425.78
2022-11-05T02:51:00.016Z,-23424.69
2022-11-05T02:53:05.161Z,-23419.13
2022-11-05T02:55:17.554Z,-23420.25
2022-11-05T02:57:20.506Z,-23423.88
2022-11-05T02:59:23.190Z,-23427.84
2022-11-05T03:01:25.984Z,-23423.09
2022-11-05T03:03:34.393Z,-23422.63
2022-11-05T03:05:45.252Z,-23421.50
2022-11-05T03:07:55.955Z,-23427.72
2022-11-05T03:10:10.064Z,-23424.22
2022-11-05T03:12:23.818Z,-23423.09
2022-11-05T03:14:38.574Z,-23426.13
2022-11-05T03:16:43.277Z,-23425.78
2022-11-05T03:18:51.396Z,-23425.00
2022-11-05T03:21:01.968Z,-23424.69
2022-11-05T03:23:11.555Z,-23422.16
2022-11-05T03:25:19.054Z,-23421.03
2022-11-05T03:27:27.598Z,-23420.09
2022-11-05T03:29:35.593Z,-23418.19
2022-11-05T03:31:41.921Z,-23420.72
2022-11-05T03:33:45.925Z,-23420.56
2022-11-05T03:35:54.967Z,-23422.94
2022-11-05T03:38:01.990Z,-23423.09
2022-11-05T03:40:08.571Z,-23426.13
2022-11-05T03:42:16.687Z,-23421.50
2022-11-05T03:44:24.775Z,-23422.94
2022-11-05T03:46:31.301Z,-23424.22
2022-11-05T03:48:38.853Z,-23423.09
2022-11-05T03:50:47.465Z,-23422.94
2022-11-05T03:52:54.441Z,-23423.72
2022-11-05T03:54:57.367Z,-23421.50
2022-11-05T03:57:04.267Z,-23417.84
2022-11-05T03:59:09.376Z,-23421.19
2022-11-05T04:01:13.288Z,-23421.66
2022-11-05T04:03:15.954Z,-23421.03
2022-11-05T04:05:18.694Z,-23422.63
2022-11-05T04:07:39.161Z,-23425.31
2022-11-05T04:10:00.602Z,-23424.22
2022-11-05T04:12:21.627Z,-23422.16
2022-11-05T04:14:26.093Z,-23422.47
2022-11-05T04:16:46.212Z,-23417.38
2022-11-05T04:18:48.954Z,-23416.44
2022-11-05T04:21:09.316Z,-23417.06
2022-11-05T04:23:29.622Z,-23414.53
2022-11-05T04:25:33.738Z,-23416.44
2022-11-05T04:27:36.976Z,-23416.44
2022-11-05T04:29:56.926Z,-23413.56
2022-11-05T04:31:59.566Z,-23413.25
2022-11-05T04:34:02.329Z,-23414.84
2022-11-05T04:36:05.403Z,-23412.13
2022-11-05T04:38:09.773Z,-23416.09
2022-11-05T04:40:12.349Z,-23418.03
2022-11-05T04:42:16.300Z,-23418.03
2022-11-05T04:44:18.909Z,-23418.34
2022-11-05T04:46:21.547Z,-23418.03
2022-11-05T04:48:24.154Z,-23416.44
2022-11-05T04:50:27.266Z,-23415.47
2022-11-05T04:52:29.914Z,-23415.00
2022-11-05T04:54:32.538Z,-23416.44
2022-11-05T04:56:35.310Z,-23418.34
2022-11-05T04:58:41.930Z,-23414.38
2022-11-05T05:00:44.655Z,-23418.50
2022-11-05T05:02:47.599Z,-23412.47
2022-11-05T05:04:50.211Z,-23413.88
2022-11-05T05:06:52.870Z,-23412.63
2022-11-05T05:08:55.478Z,-23412.78
2022-11-05T05:11:02.277Z,-23415.31
2022-11-05T05:13:04.962Z,-23412.31
2022-11-05T05:15:09.559Z,-23411.34
2022-11-05T05:17:12.150Z,-23413.56
2022-11-05T05:19:15.387Z,-23411.81
2022-11-05T05:21:37.102Z,-23418.34
2022-11-05T05:23:39.722Z,-23414.84
2022-11-05T05:25:42.294Z,-23411.66
2022-11-05T05:27:44.887Z,-23417.06
2022-11-05T05:29:47.484Z,-23413.41
2022-11-05T05:31:51.448Z,-23414.53
2022-11-05T05:33:54.751Z,-23414.84
2022-11-05T05:35:58.670Z,-23413.25
2022-11-05T05:38:01.280Z,-23414.69
2022-11-05T05:40:04.167Z,-23414.03
2022-11-05T05:42:06.839Z,-23410.06
2022-11-05T05:44:09.494Z,-23412.63
2022-11-05T05:46:13.675Z,-23411.19
2022-11-05T05:48:17.645Z,-23410.72
2022-11-05T05:50:21.179Z,-23411.50
2022-11-05T05:52:23.952Z,-23413.56
2022-11-05T05:54:32.089Z,-23409.44
2022-11-05T05:56:36.114Z,-23411.03
2022-11-05T05:58:40.152Z,-23412.31
2022-11-05T06:00:42.787Z,-23412.31
2022-11-05T06:02:45.526Z,-23413.25
2022-11-05T06:04:49.544Z,-23412.63
2022-11-05T06:06:52.147Z,-23414.53
2022-11-05T06:08:55.558Z,-23415.31
2022-11-05T06:10:59.314Z,-23418.66
2022-11-05T06:13:02.594Z,-23419.59
2022-11-05T06:15:05.986Z,-23417.53
2022-11-05T06:17:09.010Z,-23420.25
2022-11-05T06:19:11.700Z,-23419.28
2022-11-05T06:21:18.859Z,-23418.19
2022-11-05T06:23:21.468Z,-23418.66
2022-11-05T06:25:24.418Z,-23422.47
2022-11-05T06:27:27.088Z,-23418.66
2022-11-05T06:29:29.710Z,-23420.25
2022-11-05T06:31:32.332Z,-23423.41
2022-11-05T06:33:35.136Z,-23419.59
2022-11-05T06:35:37.766Z,-23419.59
2022-11-05T06:37:41.763Z,-23424.22
2022-11-05T06:39:44.708Z,-23422.31
2022-11-05T06:42:17.964Z,-23426.44
2022-11-05T06:44:09.935Z,-23423.41
2022-11-05T06:46:12.776Z,-23423.41
2022-11-05T06:48:15.375Z,-23429.44
2022-11-05T06:50:17.946Z,-23426.28
2022-11-05T06:52:21.418Z,-23423.09
2022-11-05T06:54:25.368Z,-23428.19
2022-11-05T06:56:28.033Z,-23425.00
2022-11-05T06:58:30.846Z,-23424.38
2022-11-05T07:00:33.743Z,-23420.56
2022-11-05T07:02:36.388Z,-23420.72
2022-11-05T07:04:39.096Z,-23422.16
2022-11-05T07:06:41.719Z,-23425.31
2022-11-05T07:08:44.310Z,-23427.84
2022-11-05T07:10:49.104Z,-23429.44
2022-11-05T07:12:51.714Z,-23430.41
2022-11-05T07:14:54.334Z,-23432.00
2022-11-05T07:16:57.743Z,-23435.16
2022-11-05T07:19:00.388Z,-23431.69
2022-11-05T07:21:04.533Z,-23430.09
2022-11-05T07:23:11.300Z,-23429.78
2022-11-05T07:25:14.156Z,-23430.09
2022-11-05T07:27:18.577Z,-23433.09
2022-11-05T07:29:21.236Z,-23433.59
2022-11-05T07:31:23.826Z,-23430.41
2022-11-05T07:33:26.445Z,-23427.38
2022-11-05T07:35:29.317Z,-23424.84
2022-11-05T07:37:32.007Z,-23428.19
2022-11-05T07:39:34.626Z,-23431.03
2022-11-05T07:41:37.288Z,-23434.53
2022-11-05T07:43:41.254Z,-23429.13
2022-11-05T07:45:44.009Z,-23432.31
2022-11-05T07:47:48.668Z,-23431.03
2022-11-05T07:49:51.307Z,-23425.78
2022-11-05T07:51:53.976Z,-23432.00
2022-11-05T07:53:56.537Z,-23431.03
2022-11-05T07:55:59.154Z,-23430.41
2022-11-05T07:58:01.834Z,-23433.75
2022-11-05T08:00:06.872Z,-23434.53
2022-11-05T08:02:11.145Z,-23431.69
2022-11-05T08:04:13.938Z,-23435.00
2022-11-05T08:06:16.606Z,-23429.78
2022-11-05T08:08:20.723Z,-23431.03
2022-11-05T08:10:24.090Z,-23433.91
2022-11-05T08:12:26.837Z,-23434.53
2022-11-05T08:14:29.463Z,-23433.28
2022-11-05T08:16:33.560Z,-23428.03
2022-11-05T08:18:36.235Z,-23431.34
2022-11-05T08:20:39.630Z,-23436.75
2022-11-05T08:22:44.568Z,-23433.28
2022-11-05T08:24:47.204Z,-23434.22
2022-11-05T08:26:49.857Z,-23436.28
2022-11-05T08:28:52.491Z,-23439.94
2022-11-05T08:30:57.287Z,-23433.75
2022-11-05T08:33:02.983Z,-23428.81
2022-11-05T08:35:06.597Z,-23421.66
2022-11-05T08:37:09.324Z,-23424.06
2022-11-05T08:39:16.815Z,-23425.78
2022-11-05T08:41:19.771Z,-23418.34
2022-11-05T08:43:22.588Z,-23419.44
2022-11-05T08:45:25.775Z,-23413.88
2022-11-05T08:47:28.387Z,-23413.88
2022-11-05T08:49:32.422Z,-23415.16
2022-11-05T08:51:35.068Z,-23419.28
2022-11-05T08:53:37.714Z,-23415.47
2022-11-05T08:55:40.486Z,-23418.97
2022-11-05T08:57:43.095Z,-23413.41
2022-11-05T08:59:45.753Z,-23406.91
2022-11-05T09:01:50.488Z,-23416.75
2022-11-05T09:03:53.449Z,-23418.66
2022-11-05T09:05:57.408Z,-23421.66
2022-11-05T09:08:01.574Z,-23425.63
2022-11-05T09:10:04.694Z,-23425.16
2022-11-05T09:12:12.602Z,-23425.16
2022-11-05T09:14:15.634Z,-23424.06
2022-11-05T09:16:21.329Z,-23416.44
2022-11-05T09:18:23.982Z,-23426.28
2022-11-05T09:20:26.684Z,-23428.66
2022-11-05T09:22:30.930Z,-23413.09
2022-11-05T09:24:33.624Z,-23425.78
2022-11-05T09:26:36.311Z,-23426.59
2022-11-05T09:28:39.299Z,-23427.84
2022-11-05T09:30:42.911Z,-23429.94
2022-11-05T09:32:45.539Z,-23430.72
2022-11-05T09:34:48.969Z,-23426.59
2022-11-05T09:36:51.567Z,-23434.53
2022-11-05T09:38:55.570Z,-23424.38
2022-11-05T09:41:01.900Z,-23425.31
2022-11-05T09:43:06.805Z,-23430.41
2022-11-05T09:45:15.167Z,-23430.09
2022-11-05T09:47:22.767Z,-23439.59
2022-11-05T09:49:28.740Z,-23432.00
2022-11-05T09:51:31.893Z,-23441.19
2022-11-05T09:53:39.222Z,-23434.22
2022-11-05T09:55:46.198Z,-23438.81
2022-11-05T09:57:53.251Z,-23429.94
2022-11-05T09:59:58.735Z,-23442.78
2022-11-05T10:02:04.920Z,-23425.63
2022-11-05T10:04:10.896Z,-23439.28
2022-11-05T10:06:20.565Z,-23439.28
2022-11-05T10:08:26.335Z,-23436.59
2022-11-05T10:10:41.342Z,-23436.75
2022-11-05T10:12:51.857Z,-23428.81
2022-11-05T10:15:07.263Z,-23433.91
2022-11-05T10:17:13.774Z,-23433.75
2022-11-05T10:19:23.865Z,-23421.03
2022-11-05T10:21:51.558Z,-23432.31
2022-11-05T10:23:49.647Z,-23433.28
2022-11-05T10:25:56.116Z,-23438.97
2022-11-05T10:28:01.129Z,-23438.03
2022-11-05T10:30:04.634Z,-23442.78
2022-11-05T10:32:08.363Z,-23442.16
2022-11-05T10:34:13.692Z,-23438.97
2022-11-05T10:36:21.881Z,-23437.41
2022-11-05T10:38:25.183Z,-23435.97
2022-11-05T10:40:37.379Z,-23437.06
2022-11-05T10:42:52.482Z,-23435.34
2022-11-05T10:45:05.480Z,-23435.47
2022-11-05T10:47:31.638Z,-23430.09
2022-11-05T10:49:47.257Z,-23439.59
2022-11-05T10:51:56.498Z,-23450.41
2022-11-05T10:54:04.594Z,-23451.34
2022-11-05T10:56:29.739Z,-23465.16
2022-11-05T10:58:35.337Z,-23460.09
2022-11-05T11:00:39.680Z,-23455.47
2022-11-05T11:02:43.097Z,-23453.25
2022-11-05T11:04:52.770Z,-23455.00
2022-11-05T11:06:57.606Z,-23456.44
2022-11-05T11:09:02.825Z,-23450.41
2022-11-05T11:11:08.821Z,-23446.91
2022-11-05T11:13:21.082Z,-23448.19
2022-11-05T11:15:27.594Z,-23453.25
2022-11-05T11:17:33.416Z,-23450.88
2022-11-05T11:19:37.415Z,-23459.91
2022-11-05T11:21:42.889Z,-23453.25
2022-11-05T11:23:54.834Z,-23451.34
2022-11-05T11:26:01.761Z,-23448.81
2022-11-05T11:28:06.326Z,-23450.09
2022-11-05T11:30:19.267Z,-23451.03
2022-11-05T11:32:22.862Z,-23465.31
2022-11-05T11:34:30.657Z,-23462.78
2022-11-05T11:36:36.652Z,-23470.38
2022-11-05T11:38:40.136Z,-23463.09
2022-11-05T11:40:42.997Z,-23462.94
2022-11-05T11:42:48.358Z,-23470.88
2022-11-05T11:44:52.430Z,-23469.75
2022-11-05T11:46:57.858Z,-23461.19
2022-11-05T11:49:01.805Z,-23463.41
2022-11-05T11:51:30.043Z,-23461.19
2022-11-05T11:53:36.165Z,-23458.66
2022-11-05T11:55:38.768Z,-23467.69
2022-11-05T11:57:48.043Z,-23483.53
2022-11-05T12:02:39.643Z,-23463.41
2022-11-05T12:04:54.879Z,-23463.09
2022-11-05T12:07:12.218Z,-23459.59
2022-11-05T12:09:23.257Z,-23454.84
2022-11-05T12:11:34.200Z,-23453.25
2022-11-05T12:13:59.437Z,-23454.22
2022-11-05T12:16:09.689Z,-23455.16
2022-11-05T12:18:20.743Z,-23449.13
2022-11-05T12:20:31.403Z,-23451.84
2022-11-05T12:22:53.113Z,-23456.28
2022-11-05T12:25:22.374Z,-23459.75
2022-11-05T12:27:40.748Z,-23474.03
2022-11-05T12:29:52.089Z,-23478.78
2022-11-05T12:32:11.631Z,-23479.25
2022-11-05T12:34:29.981Z,-23477.84
2022-11-05T12:36:39.686Z,-23494.81
2022-11-05T12:39:04.274Z,-23518.41
2022-11-05T12:41:17.714Z,-23545.78
2022-11-05T12:43:31.005Z,-23518.09
2022-11-05T12:45:46.565Z,-23509.69
2022-11-05T12:48:05.394Z,-23501.78
2022-11-05T12:50:19.146Z,-23490.03
2022-11-05T12:52:35.990Z,-23483.22
2022-11-05T12:54:52.319Z,-23499.56
2022-11-05T12:56:58.949Z,-23495.59
2022-11-05T12:59:05.323Z,-23493.53
2022-11-05T13:01:12.816Z,-23485.59
2022-11-05T13:03:26.986Z,-23488.47
2022-11-05T13:05:36.037Z,-23475.78
2022-11-05T13:07:41.160Z,-23482.44
2022-11-05T13:09:49.206Z,-23464.69
2022-11-05T13:11:55.331Z,-23470.06
2022-11-05T13:14:06.976Z,-23473.88
2022-11-05T13:16:18.249Z,-23458.66
2022-11-05T13:18:25.144Z,-23467.84
2022-11-05T13:20:32.207Z,-23462.47
2022-11-05T13:22:38.775Z,-23468.16
2022-11-05T13:24:48.373Z,-23466.44
2022-11-05T13:26:57.248Z,-23461.66
2022-11-05T13:29:06.475Z,-23455.97
2022-11-05T13:31:14.996Z,-23455.78
2022-11-05T13:33:23.105Z,-23462.78
2022-11-05T13:35:30.409Z,-23461.81
2022-11-05T13:38:01.000Z,-23457.53
2022-11-05T13:40:10.465Z,-23455.16
2022-11-05T13:43:00.635Z,-23454.38
2022-11-05T13:45:25.132Z,-23454.84
2022-11-05T13:47:35.681Z,-23457.69
2022-11-05T13:50:11.304Z,-23461.81
2022-11-05T13:52:33.647Z,-23452.31
2022-11-05T13:55:07.143Z,-23462.63
2022-11-05T13:57:31.511Z,-23460.25
2022-11-05T13:59:56.077Z,-23454.69
2022-11-05T14:02:00.527Z,-23457.06
2022-11-05T14:04:04.400Z,-23455.47
2022-11-05T14:06:10.634Z,-23454.84
2022-11-05T14:08:19.110Z,-23453.72
2022-11-05T14:10:30.749Z,-23453.41
2022-11-05T14:12:39.072Z,-23449.28
2022-11-05T14:14:45.657Z,-23445.16
2022-11-05T14:16:52.337Z,-23445.97
2022-11-05T14:18:56.251Z,-23445.00
2022-11-05T14:21:01.070Z,-23442.31
2022-11-05T14:23:48.268Z,-23444.84
2022-11-05T14:25:56.122Z,-23449.94
2022-11-05T14:28:00.088Z,-23443.75
2022-11-05T14:30:42.527Z,-23443.41
2022-11-05T14:32:49.905Z,-23442.78
2022-11-05T14:34:56.982Z,-23442.47
2022-11-05T14:37:29.074Z,-23445.16
2022-11-05T14:39:33.371Z,-23445.81
2022-11-05T14:41:53.159Z,-23442.78
2022-11-05T14:44:00.499Z,-23442.78
2022-11-05T14:46:06.081Z,-23439.13
2022-11-05T14:48:28.038Z,-23441.69
2022-11-05T14:50:37.748Z,-23439.94
2022-11-05T14:52:41.507Z,-23436.44
2022-11-05T14:54:48.486Z,-23438.34
2022-11-05T14:56:56.379Z,-23438.97
2022-11-05T14:59:52.295Z,-23438.97
2022-11-05T15:01:57.145Z,-23442.63
2022-11-05T15:04:17.309Z,-23442.94
2022-11-05T15:06:26.307Z,-23443.41
2022-11-05T15:08:37.524Z,-23441.53
2022-11-05T15:10:41.372Z,-23437.22
2022-11-05T15:12:47.446Z,-23436.13
2022-11-05T15:14:58.358Z,-23434.38
2022-11-05T15:17:09.872Z,-23435.16
2022-11-05T15:19:21.454Z,-23442.47
2022-11-05T15:21:25.764Z,-23435.47
2022-11-05T15:23:40.097Z,-23435.16
2022-11-05T15:25:52.959Z,-23435.34
2022-11-05T15:28:04.426Z,-23431.03
2022-11-05T15:30:16.410Z,-23432.31
2022-11-05T15:32:20.363Z,-23431.03
2022-11-05T15:34:25.888Z,-23430.88
2022-11-05T15:36:30.389Z,-23428.19
2022-11-05T15:38:35.331Z,-23429.78
2022-11-05T15:40:37.969Z,-23431.34
2022-11-05T15:42:40.589Z,-23430.25
2022-11-05T15:44:48.200Z,-23432.16
2022-11-05T15:47:07.068Z,-23429.44
2022-11-05T15:49:11.125Z,-23431.53
2022-11-05T15:51:13.921Z,-23431.34
2022-11-05T15:53:44.117Z,-23432.63
2022-11-05T15:55:51.026Z,-23428.19
2022-11-05T15:57:59.630Z,-23429.44
2022-11-05T16:00:06.534Z,-23429.44
2022-11-05T16:02:26.368Z,-23432.47
2022-11-05T16:04:31.895Z,-23431.69
2022-11-05T16:06:39.741Z,-23429.44
2022-11-05T16:08:48.623Z,-23429.13
2022-11-05T16:10:56.460Z,-23429.63
2022-11-05T16:13:20.037Z,-23429.44
2022-11-05T16:15:25.055Z,-23428.81
2022-11-05T16:17:33.083Z,-23429.78
2022-11-05T16:19:40.710Z,-23429.13
2022-11-05T16:21:54.681Z,-23429.13
2022-11-05T16:23:59.515Z,-23429.44
2022-11-05T16:26:02.219Z,-23427.84
2022-11-05T16:28:07.492Z,-23424.06
2022-11-05T16:30:18.932Z,-23425.00
2022-11-05T16:32:29.723Z,-23425.47
2022-11-05T16:34:38.054Z,-23428.50
2022-11-05T16:36:40.823Z,-23426.59
2022-11-05T16:38:43.620Z,-23426.59
2022-11-05T16:40:47.996Z,-23427.22
2022-11-05T16:42:53.843Z,-23424.84
2022-11-05T16:44:56.636Z,-23423.09
2022-11-05T16:46:59.308Z,-23421.66
2022-11-05T16:49:02.499Z,-23421.66
2022-11-05T16:51:06.612Z,-23418.34
2022-11-05T16:53:09.405Z,-23419.44
2022-11-05T16:55:12.593Z,-23417.69
2022-11-05T16:57:26.121Z,-23415.31
2022-11-05T16:59:29.694Z,-23414.22
2022-11-05T17:01:33.353Z,-23412.63
2022-11-05T17:03:36.092Z,-23412.63
2022-11-05T17:05:38.894Z,-23409.44
2022-11-05T17:07:42.947Z,-23409.91
2022-11-05T17:09:45.904Z,-23405.94
2022-11-05T17:11:48.530Z,-23405.94
2022-11-05T17:13:51.155Z,-23405.94
2022-11-05T17:15:53.845Z,-23402.28
2022-11-05T17:17:56.979Z,-23402.63
2022-11-05T17:19:59.570Z,-23399.13
2022-11-05T17:22:02.187Z,-23394.81
2022-11-05T17:24:07.952Z,-23391.34
2022-11-05T17:26:13.048Z,-23393.56
2022-11-05T17:28:17.341Z,-23393.88
2022-11-05T17:30:20.321Z,-23394.19
2022-11-05T17:32:22.952Z,-23393.22
2022-11-05T17:34:25.929Z,-23394.19
2022-11-05T17:36:28.595Z,-23393.56
2022-11-05T17:38:31.236Z,-23394.66
2022-11-05T17:40:36.530Z,-23391.34
2022-11-05T17:42:39.128Z,-23388.16
2022-11-05T17:44:44.293Z,-23388.16
2022-11-05T17:46:46.939Z,-23386.41
2022-11-05T17:48:52.040Z,-23384.34
2022-11-05T17:50:56.719Z,-23384.34
2022-11-05T17:52:59.348Z,-23383.38
2022-11-05T17:55:02.058Z,-23383.69
2022-11-05T17:57:06.080Z,-23383.06
2022-11-05T17:59:09.222Z,-23381.16
2022-11-05T18:01:25.968Z,-23379.25
2022-11-05T18:03:28.710Z,-23372.91
2022-11-05T18:05:31.425Z,-23372.25
2022-11-05T18:07:34.574Z,-23372.56
2022-11-05T18:09:37.583Z,-23374.16
2022-11-05T18:11:41.314Z,-23374.81
2022-11-05T18:13:45.374Z,-23372.56
2022-11-05T18:15:48.037Z,-23373.53
2022-11-05T18:17:50.659Z,-23372.91
2022-11-05T18:19:53.309Z,-23371.16
2022-11-05T18:21:56.347Z,-23366.22
2022-11-05T18:23:59.001Z,-23365.56
2022-11-05T18:26:01.669Z,-23365.44
2022-11-05T18:28:04.392Z,-23363.19
2022-11-05T18:30:10.480Z,-23360.81
2022-11-05T18:32:13.175Z,-23364.78
2022-11-05T18:34:15.827Z,-23362.72
2022-11-05T18:36:18.804Z,-23363.03
2022-11-05T18:38:21.490Z,-23358.25
2022-11-05T18:40:24.157Z,-23358.91
2022-11-05T18:42:26.852Z,-23355.41
2022-11-05T18:44:30.403Z,-23353.97
2022-11-05T18:46:57.229Z,-23356.03
2022-11-05T18:48:58.803Z,-23358.09
2022-11-05T18:51:02.211Z,-23354.75
2022-11-05T18:53:04.933Z,-23356.03
2022-11-05T18:55:08.743Z,-23354.75
2022-11-05T18:57:11.466Z,-23356.34
2022-11-05T18:59:35.863Z,-23354.44
2022-11-05T19:01:40.210Z,-23356.34
2022-11-05T19:03:42.903Z,-23355.25
2022-11-05T19:05:45.509Z,-23353.50
2022-11-05T19:07:48.147Z,-23356.03
2022-11-05T19:09:51.145Z,-23356.19
2022-11-05T19:11:56.945Z,-23356.03
2022-11-05T19:13:59.952Z,-23353.50
2022-11-05T19:16:02.657Z,-23350.63
2022-11-05T19:18:06.710Z,-23350.94
2022-11-05T19:20:10.401Z,-23350.63
2022-11-05T19:22:13.085Z,-23351.59
2022-11-05T19:24:17.691Z,-23342.66
2022-11-05T19:26:28.186Z,-23343.00
2022-11-05T19:28:31.394Z,-23347.28
2022-11-05T19:30:33.991Z,-23343.63
2022-11-05T19:32:36.590Z,-23338.84
2022-11-05T19:34:40.526Z,-23339.81
2022-11-05T19:36:43.744Z,-23345.84
2022-11-05T19:38:46.326Z,-23342.66
2022-11-05T19:40:48.987Z,-23340.13
2022-11-05T19:42:51.573Z,-23343.94
2022-11-05T19:44:54.202Z,-23342.66
2022-11-05T19:46:56.860Z,-23340.13
2022-11-05T19:49:00.583Z,-23335.81
2022-11-05T19:51:07.533Z,-23335.03
2022-11-05T19:53:10.362Z,-23334.72
2022-11-05T19:55:13.127Z,-23332.47
2022-11-05T19:57:15.766Z,-23332.47
2022-11-05T19:59:18.439Z,-23335.50
2022-11-05T20:01:22.884Z,-23337.91
2022-11-05T20:03:25.631Z,-23338.84
2022-11-05T20:05:28.282Z,-23335.66
2022-11-05T20:07:32.546Z,-23338.53
2022-11-05T20:09:35.247Z,-23335.97
2022-11-05T20:11:39.277Z,-23335.66
2022-11-05T20:13:42.334Z,-23335.81
2022-11-05T20:15:45.048Z,-23338.84
2022-11-05T20:17:51.656Z,-23338.22
2022-11-05T20:19:54.529Z,-23337.75
2022-11-05T20:22:00.552Z,-23338.22
2022-11-05T20:24:05.397Z,-23339.50
2022-11-05T20:26:08.745Z,-23339.81
2022-11-05T20:28:11.594Z,-23337.56
2022-11-05T20:30:14.569Z,-23337.75
2022-11-05T20:32:17.242Z,-23339.31
2022-11-05T20:34:19.815Z,-23342.19
2022-11-05T20:36:25.454Z,-23343.63
2022-11-05T20:38:28.427Z,-23343.78
2022-11-05T20:40:32.411Z,-23340.75
2022-11-05T20:42:36.864Z,-23339.16
2022-11-05T20:44:39.496Z,-23333.75
2022-11-05T20:46:42.153Z,-23333.44
2022-11-05T20:48:45.252Z,-23333.44
2022-11-05T20:50:47.968Z,-23332.81
2022-11-05T20:52:50.651Z,-23333.13
2022-11-05T20:54:53.365Z,-23331.22
2022-11-05T20:56:57.355Z,-23332.97
2022-11-05T20:59:00.800Z,-23334.25
2022-11-05T21:01:03.637Z,-23338.38
2022-11-05T21:03:06.504Z,-23333.13
2022-11-05T21:05:09.594Z,-23335.66
2022-11-05T21:07:12.319Z,-23334.72
2022-11-05T21:09:15.239Z,-23337.25
2022-11-05T21:11:18.093Z,-23337.09
2022-11-05T21:13:22.609Z,-23337.56
2022-11-05T21:15:25.257Z,-23337.91
2022-11-05T21:17:27.928Z,-23338.22
2022-11-05T21:19:32.148Z,-23337.91
2022-11-05T21:21:40.008Z,-23336.47
2022-11-05T21:23:43.757Z,-23339.16
2022-11-05T21:25:47.236Z,-23336.47
2022-11-05T21:27:49.828Z,-23337.91
2022-11-05T21:29:53.765Z,-23336.63
2022-11-05T21:31:56.558Z,-23339.16
2022-11-05T21:33:59.166Z,-23335.97
2022-11-05T21:36:07.836Z,-23337.91
2022-11-05T21:38:11.669Z,-23335.66
2022-11-05T21:40:14.532Z,-23332.97
2022-11-05T21:42:17.248Z,-23328.66
2022-11-05T21:44:20.081Z,-23327.72
2022-11-05T21:46:24.133Z,-23329.63
2022-11-05T21:48:26.844Z,-23326.13
2022-11-05T21:50:43.409Z,-23325.47
2022-11-05T21:53:03.588Z,-23324.22
2022-11-05T21:55:35.897Z,-23322.63
2022-11-05T21:57:56.395Z,-23320.72
2022-11-05T22:00:00.494Z,-23321.66
2022-11-05T22:02:05.272Z,-23320.22
2022-11-05T22:04:08.048Z,-23318.47
2022-11-05T22:06:10.699Z,-23318.97
2022-11-05T22:08:13.697Z,-23318.31
2022-11-05T22:10:17.137Z,-23317.19
2022-11-05T22:12:19.810Z,-23315.28
2022-11-05T22:14:22.955Z,-23315.28
2022-11-05T22:16:25.586Z,-23314.03
2022-11-05T22:18:29.602Z,-23315.13
2022-11-05T22:20:32.289Z,-23313.53
2022-11-05T22:22:35.458Z,-23314.50
2022-11-05T22:24:38.535Z,-23312.09
2022-11-05T22:26:42.684Z,-23312.25
2022-11-05T22:28:45.289Z,-23310.50
2022-11-05T22:30:47.970Z,-23311.31
2022-11-05T22:32:50.633Z,-23308.28
2022-11-05T22:34:54.572Z,-23309.25
2022-11-05T22:36:57.489Z,-23307.66
2022-11-05T22:39:00.367Z,-23306.22
2022-11-05T22:41:07.861Z,-23310.69
2022-11-05T22:43:10.532Z,-23309.88
2022-11-05T22:45:13.170Z,-23305.09
2022-11-05T22:47:17.922Z,-23304.47
2022-11-05T22:49:20.593Z,-23303.81
2022-11-05T22:51:25.985Z,-23305.41
2022-11-05T22:53:28.595Z,-23303.50
2022-11-05T22:55:31.191Z,-23302.88
2022-11-05T22:57:34.037Z,-23302.56
2022-11-05T22:59:36.682Z,-23303.50
2022-11-05T23:01:39.654Z,-23302.72
2022-11-05T23:03:44.521Z,-23305.41
2022-11-05T23:05:47.168Z,-23303.66
2022-11-05T23:10:41.977Z,-23302.56
2022-11-05T23:12:44.815Z,-23303.34
2022-11-05T23:14:47.521Z,-23302.88
2022-11-05T23:17:08.025Z,-23305.41
2022-11-05T23:19:24.749Z,-23306.38
2022-11-05T23:21:45.008Z,-23306.38
2022-11-05T23:24:05.850Z,-23306.38
2022-11-05T23:26:23.735Z,-23309.56
2022-11-05T23:28:26.732Z,-23309.56
2022-11-05T23:30:29.841Z,-23306.69
2022-11-05T23:32:32.157Z,-23307.66
2022-11-05T23:34:34.886Z,-23307.66
2022-11-05T23:36:55.055Z,-23306.06
2022-11-05T23:38:57.768Z,-23307.00
2022-11-05T23:41:19.061Z,-23306.38
2022-11-05T23:43:40.613Z,-23306.06
2022-11-05T23:46:02.851Z,-23306.53
2022-11-05T23:48:17.803Z,-23307.00
2022-11-05T23:50:20.546Z,-23306.06
2022-11-05T23:52:23.175Z,-23307.81
2022-11-05T23:54:25.822Z,-23305.91
2022-11-05T23:56:28.439Z,-23308.28
2022-11-05T23:58:32.858Z,-23305.25
